Time;durP1;ratioP1;P1;durP2;ratioP2;P2;SDS_P1;SDS_P2;PMS_P1;PMS_P2;Temp;Humidity;BMP_temperature;BMP_pressure;BME280_temperature;BME280_humidity;BME280_pressure;Samples;Min_cycle;Max_cycle;Signal;HPM_P1;HPM_P2
2021/12/07 00:00:41;;;;;;;8.27;5.50;;;1.80;99.90;;;;;;4961573;28;20500;-60
2021/12/07 00:03:06;;;;;;;11.30;5.53;;;1.80;99.90;;;;;;4960133;28;20039;-59
2021/12/07 00:05:32;;;;;;;9.52;5.65;;;1.80;99.90;;;;;;4945369;28;20540;-57
2021/12/07 00:07:57;;;;;;;8.20;5.65;;;1.90;99.90;;;;;;4947072;28;20035;-59
2021/12/07 00:10:23;;;;;;;8.65;5.38;;;1.90;99.90;;;;;;4943146;28;20486;-59
2021/12/07 00:12:48;;;;;;;8.02;5.65;;;1.90;99.90;;;;;;4941774;28;20058;-60
2021/12/07 00:15:17;;;;;;;9.25;5.82;;;1.90;99.90;;;;;;4945483;28;20413;-58
2021/12/07 00:17:44;;;;;;;9.95;5.60;;;2.00;99.90;;;;;;4949492;28;20069;-59
2021/12/07 00:20:16;;;;;;;7.90;5.50;;;2.00;99.90;;;;;;4949362;28;20378;-60
2021/12/07 00:22:44;;;;;;;11.65;5.97;;;2.00;99.90;;;;;;4948145;28;20039;-57
2021/12/07 00:25:11;;;;;;;9.35;5.28;;;2.00;99.90;;;;;;4950942;28;20101;-60
2021/12/07 00:27:36;;;;;;;8.93;5.95;;;2.10;99.90;;;;;;4948078;28;20434;-60
2021/12/07 00:30:06;;;;;;;9.55;5.30;;;2.10;99.90;;;;;;4951796;28;20229;-59
2021/12/07 00:32:36;;;;;;;8.40;5.07;;;2.10;99.90;;;;;;4961604;28;20024;-59
2021/12/07 00:37:40;;;;;;;6.57;4.38;;;2.10;99.90;;;;;;4961775;28;20469;-59
2021/12/07 00:40:09;;;;;;;5.95;3.78;;;2.20;99.90;;;;;;4952317;28;20031;-58
2021/12/07 00:42:35;;;;;;;6.30;4.28;;;2.30;99.90;;;;;;4953256;28;20031;-57
2021/12/07 00:45:02;;;;;;;6.22;3.50;;;2.30;99.90;;;;;;4953632;28;20413;-60
2021/12/07 00:47:27;;;;;;;4.22;2.70;;;2.40;99.90;;;;;;4951146;28;20046;-58
2021/12/07 00:49:53;;;;;;;3.42;2.15;;;2.40;99.90;;;;;;4945388;28;20032;-59
2021/12/07 00:52:19;;;;;;;3.03;2.35;;;2.30;99.90;;;;;;4943326;28;20059;-60
2021/12/07 00:54:44;;;;;;;3.53;2.10;;;2.30;99.90;;;;;;4950102;28;20053;-59
2021/12/07 00:57:10;;;;;;;2.75;1.90;;;2.10;99.90;;;;;;4944146;28;20131;-58
2021/12/07 00:59:35;;;;;;;2.97;1.90;;;2.00;99.90;;;;;;4964703;28;20050;-59
2021/12/07 01:02:01;;;;;;;2.22;1.70;;;1.90;99.90;;;;;;4944578;28;20035;-59
2021/12/07 01:04:28;;;;;;;1.85;1.50;;;1.90;99.90;;;;;;4940822;28;22355;-58
2021/12/07 01:09:35;;;;;;;2.67;1.30;;;1.80;99.90;;;;;;4937107;28;20031;-58
2021/12/07 01:25:55;;;;;;;2.30;1.30;;;1.40;99.90;;;;;;4948918;28;20099;-59
2021/12/07 01:28:30;;;;;;;1.92;1.27;;;1.30;99.90;;;;;;4948853;28;20050;-58
2021/12/07 01:31:10;;;;;;;1.38;1.08;;;1.30;99.90;;;;;;4946631;28;20035;-58
2021/12/07 01:36:25;;;;;;;1.67;0.95;;;1.30;99.90;;;;;;4946368;28;20043;-59
2021/12/07 01:42:51;;;;;;;3.30;1.30;;;1.20;99.90;;;;;;4950380;28;20044;-59
2021/12/07 01:47:18;;;;;;;2.90;1.58;;;1.20;99.90;;;;;;4949696;28;20035;-59
2021/12/07 01:57:55;;;;;;;6.75;2.53;;;1.20;99.90;;;;;;4952012;28;20041;-60
2021/12/07 02:00:24;;;;;;;91.53;5.93;;;1.20;99.90;;;;;;4946043;28;20043;-59
2021/12/07 02:02:49;;;;;;;23.05;3.70;;;1.20;99.90;;;;;;4947834;28;20027;-60
2021/12/07 02:05:15;;;;;;;43.80;3.30;;;1.20;99.90;;;;;;4942372;28;20027;-59
2021/12/07 02:07:41;;;;;;;50.40;3.42;;;1.10;99.90;;;;;;4947019;28;20490;-60
2021/12/07 02:10:14;;;;;;;39.55;4.03;;;1.10;99.90;;;;;;4945680;28;20145;-59
2021/12/07 02:12:45;;;;;;;104.32;5.22;;;1.20;99.90;;;;;;4948581;28;20068;-59
2021/12/07 02:15:14;;;;;;;6.03;3.15;;;1.20;99.90;;;;;;4946561;28;20090;-58
2021/12/07 02:17:40;;;;;;;7.85;3.17;;;1.20;99.90;;;;;;4946114;28;20042;-59
2021/12/07 02:20:07;;;;;;;66.28;4.60;;;1.20;99.90;;;;;;4945757;28;20497;-59
2021/12/07 02:22:34;;;;;;;12.30;3.63;;;1.10;99.90;;;;;;4946941;28;20028;-58
2021/12/07 02:25:00;;;;;;;19.90;4.28;;;1.10;99.90;;;;;;4944816;28;20063;-59
2021/12/07 02:27:25;;;;;;;8.95;4.15;;;1.20;99.90;;;;;;4945977;28;20054;-59
2021/12/07 02:29:51;;;;;;;6.13;4.30;;;1.20;99.90;;;;;;4948962;28;20159;-59
2021/12/07 02:32:17;;;;;;;5.53;4.30;;;1.20;99.90;;;;;;4943034;28;20078;-60
2021/12/07 02:34:53;;;;;;;5.80;3.60;;;1.20;99.90;;;;;;4946502;28;20027;-54
2021/12/07 02:37:26;;;;;;;6.47;4.35;;;1.20;99.90;;;;;;4943394;28;20023;-60
2021/12/07 02:39:52;;;;;;;7.45;5.30;;;1.20;99.90;;;;;;4946350;28;20032;-58
2021/12/07 02:42:18;;;;;;;14.73;5.65;;;1.30;99.90;;;;;;4945874;28;20046;-59
2021/12/07 02:44:44;;;;;;;8.55;5.63;;;1.40;99.90;;;;;;4939681;28;20576;-60
2021/12/07 02:47:09;;;;;;;7.80;4.97;;;1.50;99.90;;;;;;4948496;28;20061;-58
2021/12/07 02:49:35;;;;;;;8.90;4.80;;;1.50;99.90;;;;;;4941842;28;20055;-59
2021/12/07 02:52:03;;;;;;;12.38;5.72;;;1.60;99.90;;;;;;4942966;28;20033;-59
2021/12/07 02:54:29;;;;;;;14.93;7.22;;;1.70;99.90;;;;;;4949187;28;20035;-59
2021/12/07 02:56:54;;;;;;;9.48;5.88;;;1.80;99.90;;;;;;4952058;28;20023;-59
2021/12/07 02:59:21;;;;;;;9.40;4.80;;;1.80;99.90;;;;;;4955092;28;20506;-59
2021/12/07 03:01:55;;;;;;;6.75;4.68;;;1.90;99.90;;;;;;4951120;28;20027;-59
2021/12/07 03:04:26;;;;;;;10.05;5.00;;;1.90;99.90;;;;;;4947135;28;20404;-58
2021/12/07 03:26:05;;;;;;;13.48;9.20;;;2.30;99.90;;;;;;4943317;28;20432;-57
2021/12/07 03:28:33;;;;;;;22.83;10.90;;;2.40;99.90;;;;;;4944346;28;20027;-59
2021/12/07 03:30:59;;;;;;;20.55;10.55;;;2.40;99.90;;;;;;4947023;28;20039;-60
2021/12/07 03:33:25;;;;;;;22.25;12.55;;;2.50;99.90;;;;;;4941542;28;20072;-59
2021/12/07 03:35:50;;;;;;;21.85;11.18;;;2.50;99.90;;;;;;4946039;28;20102;-57
2021/12/07 03:38:17;;;;;;;20.98;11.57;;;2.50;99.90;;;;;;4936906;28;20476;-58
2021/12/07 03:40:42;;;;;;;20.63;11.75;;;2.60;99.90;;;;;;4941761;28;20492;-58
2021/12/07 03:43:08;;;;;;;19.85;10.23;;;2.60;99.90;;;;;;4938719;28;20055;-59
2021/12/07 03:45:35;;;;;;;16.17;10.75;;;2.60;99.90;;;;;;4945290;28;20031;-59
2021/12/07 03:48:04;;;;;;;21.27;11.68;;;2.70;99.90;;;;;;4941431;28;20027;-59
2021/12/07 03:50:30;;;;;;;21.17;11.57;;;2.70;99.90;;;;;;4940759;28;20067;-59
2021/12/07 03:52:56;;;;;;;27.77;13.38;;;2.60;99.90;;;;;;4947258;28;20031;-59
2021/12/07 03:55:22;;;;;;;30.10;16.20;;;2.60;99.90;;;;;;4941498;28;20286;-58
2021/12/07 03:57:48;;;;;;;26.85;15.50;;;2.60;99.90;;;;;;4940298;28;20023;-57
2021/12/07 04:00:19;;;;;;;29.02;15.70;;;2.60;99.90;;;;;;4944444;28;20046;-58
2021/12/07 04:02:46;;;;;;;33.53;16.42;;;2.70;99.90;;;;;;4935546;28;20031;-57
2021/12/07 04:05:15;;;;;;;24.65;15.57;;;2.80;99.90;;;;;;4938252;28;20560;-58
2021/12/07 04:07:42;;;;;;;30.75;16.00;;;2.80;99.90;;;;;;4942566;28;20061;-58
2021/12/07 04:10:10;;;;;;;35.92;12.88;;;2.80;99.90;;;;;;4944838;28;20050;-59
2021/12/07 04:12:35;;;;;;;26.15;13.55;;;2.80;99.90;;;;;;4949090;28;20047;-56
2021/12/07 04:15:02;;;;;;;22.52;11.20;;;2.80;99.90;;;;;;4943871;28;20063;-59
2021/12/07 04:17:28;;;;;;;28.10;12.05;;;2.80;99.90;;;;;;4955831;28;20499;-59
2021/12/07 04:19:53;;;;;;;31.70;11.65;;;2.90;99.90;;;;;;4948096;28;20023;-59
2021/12/07 04:22:19;;;;;;;33.20;12.25;;;2.90;99.90;;;;;;4946080;28;20521;-60
2021/12/07 04:24:44;;;;;;;28.23;11.13;;;2.90;99.90;;;;;;4944648;28;20027;-58
2021/12/07 04:27:10;;;;;;;27.77;11.73;;;3.00;99.90;;;;;;4942255;28;20039;-59
2021/12/07 04:29:36;;;;;;;36.10;12.88;;;3.10;99.90;;;;;;4945982;28;20110;-59
2021/12/07 04:32:02;;;;;;;35.72;11.65;;;3.10;99.90;;;;;;4940985;28;20036;-59
2021/12/07 04:34:28;;;;;;;36.55;11.50;;;3.20;99.90;;;;;;4943761;28;20031;-59
2021/12/07 04:36:54;;;;;;;37.85;12.50;;;3.20;99.90;;;;;;4947477;28;20058;-56
2021/12/07 04:39:20;;;;;;;27.42;9.70;;;3.20;99.90;;;;;;4947983;28;20461;-60
2021/12/07 04:41:48;;;;;;;39.58;11.77;;;3.20;99.90;;;;;;4946823;28;20031;-60
2021/12/07 04:44:13;;;;;;;31.63;10.23;;;3.20;99.90;;;;;;4945474;28;20038;-59
2021/12/07 04:49:41;;;;;;;40.78;11.27;;;3.30;99.90;;;;;;4942314;28;20493;-60
2021/12/07 05:00:18;;;;;;;32.80;9.80;;;3.20;99.90;;;;;;4944326;28;20082;-56
2021/12/07 05:02:49;;;;;;;32.83;8.77;;;3.30;99.90;;;;;;4938652;28;20116;-59
2021/12/07 05:05:16;;;;;;;35.45;9.00;;;3.30;99.90;;;;;;4944349;28;20051;-60
2021/12/07 05:07:48;;;;;;;17.20;7.40;;;3.20;99.90;;;;;;4936919;28;20039;-58
2021/12/07 05:39:50;;;;;;;37.40;12.40;;;3.30;99.90;;;;;;4942790;28;20038;-60
2021/12/07 05:42:16;;;;;;;26.45;10.18;;;3.40;99.90;;;;;;4944689;28;20393;-58
2021/12/07 05:44:42;;;;;;;27.25;9.23;;;3.30;99.90;;;;;;4951181;28;20090;-58
2021/12/07 05:47:08;;;;;;;34.22;9.23;;;3.40;99.90;;;;;;4944958;28;20062;-59
2021/12/07 05:49:34;;;;;;;26.48;9.20;;;3.40;99.90;;;;;;4947103;28;20031;-59
2021/12/07 05:52:00;;;;;;;30.15;10.07;;;3.40;99.90;;;;;;4945549;28;20019;-60
2021/12/07 05:54:26;;;;;;;32.20;9.82;;;3.40;99.90;;;;;;4945720;28;20043;-59
2021/12/07 05:56:51;;;;;;;34.28;9.55;;;3.40;99.90;;;;;;4946516;28;20027;-60
2021/12/07 05:59:17;;;;;;;39.40;11.02;;;3.40;99.90;;;;;;4951188;28;20489;-60
2021/12/07 06:01:43;;;;;;;37.20;11.13;;;3.40;99.90;;;;;;4943029;28;20027;-58
2021/12/07 06:04:08;;;;;;;34.13;10.32;;;3.40;99.90;;;;;;4944194;28;20040;-60
2021/12/07 06:06:34;;;;;;;19.90;9.10;;;3.40;99.90;;;;;;4942604;28;20023;-56
2021/12/07 06:08:59;;;;;;;51.53;10.90;;;3.40;99.90;;;;;;4944046;28;20043;-59
2021/12/07 06:11:25;;;;;;;35.22;9.82;;;3.40;99.90;;;;;;4947761;28;20129;-57
2021/12/07 06:13:52;;;;;;;36.97;10.73;;;3.40;99.90;;;;;;4947179;28;20043;-59
2021/12/07 06:16:18;;;;;;;35.03;9.38;;;3.40;99.90;;;;;;4947764;28;20440;-60
2021/12/07 06:18:44;;;;;;;34.58;11.52;;;3.40;99.90;;;;;;4946285;28;20023;-60
2021/12/07 06:21:10;;;;;;;22.77;8.13;;;3.40;99.90;;;;;;4943212;28;20039;-60
2021/12/07 06:23:36;;;;;;;33.42;9.55;;;3.40;99.90;;;;;;4945815;28;20117;-60
2021/12/07 06:26:03;;;;;;;32.50;9.85;;;3.40;99.90;;;;;;4949159;28;20505;-60
2021/12/07 06:28:30;;;;;;;24.55;9.85;;;3.40;99.90;;;;;;4944446;28;20028;-59
2021/12/07 06:30:56;;;;;;;28.38;9.43;;;3.40;99.90;;;;;;4943268;28;20027;-53
2021/12/07 06:33:24;;;;;;;30.13;10.45;;;3.40;99.90;;;;;;4948714;28;20038;-60
2021/12/07 06:35:56;;;;;;;32.85;9.57;;;3.40;99.90;;;;;;4946115;28;20095;-58
2021/12/07 06:38:23;;;;;;;33.25;9.15;;;3.40;99.90;;;;;;4948197;28;20477;-58
2021/12/07 06:40:48;;;;;;;31.38;8.55;;;3.40;99.90;;;;;;4942738;28;20031;-59
2021/12/07 06:43:14;;;;;;;24.75;8.10;;;3.40;99.90;;;;;;4946229;28;20039;-60
2021/12/07 06:45:40;;;;;;;29.30;8.57;;;3.40;99.90;;;;;;4944586;28;20039;-60
2021/12/07 06:48:06;;;;;;;17.60;7.10;;;3.40;99.90;;;;;;4941787;28;20485;-60
2021/12/07 06:50:31;;;;;;;35.40;8.90;;;3.40;99.90;;;;;;4948811;28;20078;-59
2021/12/07 06:52:57;;;;;;;38.90;10.15;;;3.40;99.90;;;;;;4941719;28;20031;-59
2021/12/07 06:55:23;;;;;;;42.00;9.18;;;3.40;99.90;;;;;;4941357;28;20035;-60
2021/12/07 06:57:49;;;;;;;31.33;7.93;;;3.40;99.90;;;;;;4946427;28;20035;-60
2021/12/07 07:00:17;;;;;;;23.05;9.55;;;3.40;99.90;;;;;;4944589;28;20126;-60
2021/12/07 07:02:42;;;;;;;37.08;11.77;;;3.40;99.90;;;;;;4937265;28;20039;-60
2021/12/07 07:05:08;;;;;;;33.97;12.88;;;3.40;99.90;;;;;;4947285;28;20035;-60
2021/12/07 07:07:34;;;;;;;38.60;12.80;;;3.40;99.90;;;;;;4942301;28;20556;-60
2021/12/07 07:10:01;;;;;;;33.83;14.85;;;3.40;99.90;;;;;;4941941;28;20031;-59
2021/12/07 07:12:26;;;;;;;25.15;8.60;;;3.40;99.90;;;;;;4943618;28;20027;-58
2021/12/07 07:14:52;;;;;;;38.97;14.63;;;3.40;99.90;;;;;;4944645;28;20508;-59
2021/12/07 07:17:18;;;;;;;35.03;14.27;;;3.40;99.90;;;;;;4946574;28;20126;-61
2021/12/07 07:19:44;;;;;;;59.95;24.35;;;3.40;99.90;;;;;;4938201;28;20046;-59
2021/12/07 07:22:10;;;;;;;58.67;25.50;;;3.40;99.90;;;;;;4943108;28;20031;-60
2021/12/07 07:24:36;;;;;;;39.80;15.43;;;3.40;99.90;;;;;;4943821;28;20082;-59
2021/12/07 07:27:02;;;;;;;33.55;12.25;;;3.30;99.90;;;;;;4941383;28;20122;-60
2021/12/07 07:29:28;;;;;;;34.65;11.02;;;3.30;99.90;;;;;;4946941;28;20040;-60
2021/12/07 07:31:54;;;;;;;27.48;11.07;;;3.30;99.90;;;;;;4940902;28;20086;-58
2021/12/07 07:34:19;;;;;;;33.85;10.32;;;3.30;99.90;;;;;;4941380;28;20050;-58
2021/12/07 07:36:45;;;;;;;37.67;10.35;;;3.30;99.90;;;;;;4942084;28;20750;-60
2021/12/07 07:39:11;;;;;;;27.95;9.00;;;3.30;99.90;;;;;;4942123;28;20438;-58
2021/12/07 07:41:37;;;;;;;33.00;9.48;;;3.30;99.90;;;;;;4945627;28;20061;-60
2021/12/07 07:44:03;;;;;;;26.75;7.70;;;3.30;99.90;;;;;;4948279;28;20521;-60
2021/12/07 07:46:29;;;;;;;26.00;7.13;;;3.30;99.90;;;;;;4949255;28;20404;-58
2021/12/07 07:48:55;;;;;;;20.42;6.90;;;3.40;99.90;;;;;;4943755;28;20046;-56
2021/12/07 07:51:21;;;;;;;26.52;7.38;;;3.40;99.90;;;;;;4943936;28;20115;-60
2021/12/07 07:53:48;;;;;;;36.95;7.60;;;3.40;99.90;;;;;;4947391;28;20122;-57
2021/12/07 07:56:14;;;;;;;20.20;6.50;;;3.40;99.90;;;;;;4944386;28;20493;-57
2021/12/07 07:58:39;;;;;;;52.95;17.13;;;3.40;99.90;;;;;;4945114;28;20055;-60
2021/12/07 08:01:06;;;;;;;48.72;19.50;;;3.40;99.90;;;;;;4944697;28;20122;-57
2021/12/07 08:03:32;;;;;;;38.03;13.32;;;3.50;99.90;;;;;;4947263;28;20127;-60
2021/12/07 08:05:57;;;;;;;41.97;14.23;;;3.50;99.90;;;;;;4942235;28;20782;-60
2021/12/07 08:08:23;;;;;;;29.73;7.50;;;3.50;99.90;;;;;;4944849;28;20031;-58
2021/12/07 08:10:49;;;;;;;26.58;8.25;;;3.50;99.90;;;;;;4942777;28;20031;-58
2021/12/07 08:13:16;;;;;;;26.20;7.65;;;3.50;99.90;;;;;;4950646;28;20050;-60
2021/12/07 08:15:44;;;;;;;39.53;10.80;;;3.50;99.90;;;;;;4948200;28;20035;-60
2021/12/07 08:18:11;;;;;;;29.42;11.02;;;3.50;99.90;;;;;;4947162;28;20043;-60
2021/12/07 08:20:38;;;;;;;24.00;7.53;;;3.60;99.90;;;;;;4945806;28;20035;-60
2021/12/07 08:23:04;;;;;;;37.75;7.88;;;3.70;99.90;;;;;;4943323;28;20699;-60
2021/12/07 08:25:37;;;;;;;31.85;7.97;;;3.70;99.90;;;;;;4947863;28;20711;-60
2021/12/07 08:28:03;;;;;;;29.23;7.47;;;3.80;99.90;;;;;;4943772;28;20044;-60
2021/12/07 08:30:29;;;;;;;30.85;8.98;;;3.80;99.90;;;;;;4945000;28;20046;-60
2021/12/07 08:32:55;;;;;;;25.75;6.32;;;3.80;99.90;;;;;;4946544;28;20039;-59
2021/12/07 08:35:21;;;;;;;36.85;11.32;;;3.90;99.90;;;;;;4940898;28;20042;-60
2021/12/07 08:37:48;;;;;;;31.20;12.23;;;3.90;99.90;;;;;;4943040;28;20078;-59
2021/12/07 08:40:17;;;;;;;45.03;12.07;;;3.90;99.90;;;;;;4947012;28;20034;-58
2021/12/07 08:42:43;;;;;;;31.52;9.25;;;3.80;99.90;;;;;;4946575;28;20027;-60
2021/12/07 08:45:09;;;;;;;24.02;7.65;;;3.80;99.90;;;;;;4937716;28;20129;-60
2021/12/07 08:47:35;;;;;;;25.42;8.23;;;3.80;99.90;;;;;;4940302;28;20055;-59
2021/12/07 08:50:04;;;;;;;19.42;7.78;;;3.80;99.90;;;;;;4948053;28;20035;-60
2021/12/07 08:52:29;;;;;;;26.63;7.97;;;3.80;99.90;;;;;;4939513;28;20410;-60
2021/12/07 09:00:08;;;;;;;23.08;8.23;;;3.90;99.90;;;;;;4944821;28;20042;-60
2021/12/07 09:02:34;;;;;;;23.55;6.50;;;3.90;99.90;;;;;;4941226;28;20584;-60
2021/12/07 09:05:00;;;;;;;27.30;8.95;;;3.90;99.90;;;;;;4942635;28;20110;-59
2021/12/07 09:07:26;;;;;;;39.42;16.80;;;3.90;99.90;;;;;;4944481;28;20044;-59
2021/12/07 09:09:52;;;;;;;57.67;18.10;;;3.90;99.90;;;;;;4943967;28;20149;-60
2021/12/07 09:12:19;;;;;;;39.72;12.15;;;3.90;99.90;;;;;;4944973;28;20544;-58
2021/12/07 09:14:45;;;;;;;39.92;14.20;;;4.00;99.90;;;;;;4942971;28;20027;-61
2021/12/07 09:17:13;;;;;;;24.38;8.77;;;4.00;99.90;;;;;;4944342;28;20564;-60
2021/12/07 09:19:39;;;;;;;25.77;8.15;;;4.00;99.90;;;;;;4944328;28;20159;-60
2021/12/07 09:22:06;;;;;;;23.70;8.93;;;4.00;99.90;;;;;;4948077;28;20031;-60
2021/12/07 09:24:32;;;;;;;24.60;7.95;;;4.00;99.90;;;;;;4948688;28;20408;-61
2021/12/07 09:26:58;;;;;;;32.03;11.48;;;4.00;99.90;;;;;;4949682;28;20043;-60
2021/12/07 09:29:24;;;;;;;25.20;8.15;;;4.00;99.90;;;;;;4948849;28;20062;-59
2021/12/07 09:31:49;;;;;;;26.02;9.23;;;3.90;99.90;;;;;;4945167;28;20055;-60
2021/12/07 09:34:17;;;;;;;34.17;8.40;;;4.00;99.90;;;;;;4940854;28;20063;-60
2021/12/07 09:36:43;;;;;;;21.13;7.07;;;4.00;99.90;;;;;;4946136;28;20094;-59
2021/12/07 09:39:11;;;;;;;34.05;9.43;;;4.00;99.90;;;;;;4939570;28;20505;-59
2021/12/07 09:41:37;;;;;;;19.55;4.97;;;4.00;99.90;;;;;;4945123;28;20254;-59
2021/12/07 09:44:04;;;;;;;21.52;6.80;;;4.10;99.90;;;;;;4942310;28;20569;-60
2021/12/07 09:46:30;;;;;;;19.02;5.05;;;4.10;99.90;;;;;;4941513;28;20019;-60
2021/12/07 09:48:56;;;;;;;16.55;4.47;;;4.20;99.90;;;;;;4938715;28;20087;-60
2021/12/07 09:51:23;;;;;;;16.08;4.60;;;4.30;99.90;;;;;;4940653;28;20031;-60
2021/12/07 09:53:52;;;;;;;15.40;4.53;;;4.30;99.90;;;;;;4947494;28;20032;-60
2021/12/07 09:56:18;;;;;;;17.35;4.15;;;4.40;99.90;;;;;;4939539;28;20028;-60
2021/12/07 09:58:46;;;;;;;24.75;4.13;;;4.40;99.90;;;;;;4943783;28;20109;-59
2021/12/07 10:01:12;;;;;;;19.80;5.13;;;4.50;99.90;;;;;;4939478;28;20114;-60
2021/12/07 10:03:39;;;;;;;12.30;3.53;;;4.50;99.90;;;;;;4943506;28;20094;-59
2021/12/07 10:06:05;;;;;;;14.07;3.30;;;4.50;99.90;;;;;;4947900;28;20501;-60
2021/12/07 10:08:31;;;;;;;20.48;5.32;;;4.60;99.90;;;;;;4945626;28;20630;-61
2021/12/07 10:10:59;;;;;;;17.67;3.90;;;4.70;99.90;;;;;;4950096;28;20024;-58
2021/12/07 10:13:27;;;;;;;18.48;4.32;;;4.80;99.90;;;;;;4947895;28;20437;-60
2021/12/07 10:15:55;;;;;;;20.98;5.85;;;4.90;99.90;;;;;;4947130;28;20570;-60
2021/12/07 10:18:24;;;;;;;25.15;5.53;;;4.90;99.90;;;;;;4944845;28;20031;-62
2021/12/07 10:21:01;;;;;;;14.68;5.07;;;4.80;99.90;;;;;;4949969;28;20031;-61
2021/12/07 10:23:40;;;;;;;22.23;6.45;;;4.70;99.90;;;;;;4950762;28;20164;-59
2021/12/07 10:26:15;;;;;;;22.73;5.07;;;4.60;99.90;;;;;;4951100;28;20090;-59
2021/12/07 10:29:19;;;;;;;19.30;4.70;;;4.60;99.90;;;;;;4950449;28;20073;-60
2021/12/07 10:31:51;;;;;;;11.77;3.83;;;4.60;99.90;;;;;;4949183;28;20117;-58
2021/12/07 10:34:19;;;;;;;24.33;7.07;;;4.50;99.90;;;;;;4946010;28;20047;-61
2021/12/07 10:36:56;;;;;;;17.63;3.72;;;4.60;99.90;;;;;;4945036;28;20047;-59
2021/12/07 10:39:34;;;;;;;14.20;4.80;;;4.60;99.90;;;;;;4945323;28;20027;-60
2021/12/07 10:42:06;;;;;;;18.10;4.55;;;4.60;99.90;;;;;;4942479;28;20046;-60
2021/12/07 10:44:35;;;;;;;19.10;4.75;;;4.60;99.90;;;;;;4943015;28;20066;-59
2021/12/07 10:47:06;;;;;;;15.88;3.45;;;4.70;99.90;;;;;;4936134;28;20043;-59
2021/12/07 10:49:38;;;;;;;15.82;3.70;;;4.70;99.90;;;;;;4946400;28;20070;-61
2021/12/07 10:52:19;;;;;;;18.30;3.60;;;4.80;99.90;;;;;;4944753;28;20576;-59
2021/12/07 10:54:52;;;;;;;19.83;3.80;;;4.80;99.90;;;;;;4948065;28;20039;-60
2021/12/07 10:57:27;;;;;;;11.40;3.55;;;4.90;99.90;;;;;;4941359;28;20118;-59
2021/12/07 11:00:01;;;;;;;11.95;4.03;;;5.00;99.90;;;;;;4942747;28;20027;-60
2021/12/07 11:02:33;;;;;;;12.75;2.50;;;5.00;99.90;;;;;;4944037;28;20038;-60
2021/12/07 11:04:58;;;;;;;17.17;3.53;;;5.00;99.90;;;;;;4941157;28;20039;-59
2021/12/07 11:07:27;;;;;;;14.55;4.25;;;5.00;99.90;;;;;;4947112;28;20035;-59
2021/12/07 11:10:07;;;;;;;16.13;4.70;;;5.00;99.90;;;;;;4946106;28;20035;-60
2021/12/07 11:15:26;;;;;;;21.05;5.93;;;5.20;99.90;;;;;;4943548;28;20110;-60
2021/12/07 11:18:11;;;;;;;12.05;3.30;;;5.30;99.90;;;;;;4951115;28;20453;-59
2021/12/07 11:20:38;;;;;;;19.10;3.72;;;5.40;99.90;;;;;;4949155;28;20094;-60
2021/12/07 11:23:19;;;;;;;21.92;3.25;;;5.40;99.90;;;;;;4952455;28;20537;-60
2021/12/07 11:31:21;;;;;;;13.30;5.25;;;5.60;99.90;;;;;;4947836;28;20065;-61
2021/12/07 11:33:49;;;;;;;13.90;4.10;;;5.60;99.90;;;;;;4945033;28;20035;-60
2021/12/07 11:36:42;;;;;;;18.45;5.10;;;5.60;99.90;;;;;;4948776;28;20039;-60
2021/12/07 11:39:38;;;;;;;15.98;5.30;;;5.60;99.90;;;;;;4942143;28;20087;-60
2021/12/07 11:42:06;;;;;;;19.80;5.55;;;5.50;99.90;;;;;;4943407;28;20031;-61
2021/12/07 11:44:35;;;;;;;9.60;3.78;;;5.50;99.90;;;;;;4951040;28;20142;-61
2021/12/07 11:47:04;;;;;;;16.98;4.35;;;5.50;99.90;;;;;;4945817;28;20055;-61
2021/12/07 11:49:32;;;;;;;9.85;3.58;;;5.50;99.90;;;;;;4951196;28;20027;-59
2021/12/07 11:52:02;;;;;;;9.60;3.03;;;5.40;99.90;;;;;;4946420;28;20397;-59
2021/12/07 11:54:32;;;;;;;9.52;2.90;;;5.40;99.90;;;;;;4941357;28;20055;-60
2021/12/07 11:56:59;;;;;;;14.20;3.15;;;5.40;99.90;;;;;;4945160;28;20042;-57
2021/12/07 11:59:25;;;;;;;23.63;8.30;;;5.40;99.90;;;;;;4947796;28;20055;-60
2021/12/07 12:01:51;;;;;;;12.02;2.58;;;5.30;99.90;;;;;;4945011;28;20069;-59
2021/12/07 12:04:19;;;;;;;11.88;3.10;;;5.30;99.90;;;;;;4952345;28;20039;-61
2021/12/07 12:06:50;;;;;;;8.88;3.33;;;5.30;99.90;;;;;;4952385;28;20031;-60
2021/12/07 12:09:17;;;;;;;12.43;3.92;;;5.30;99.90;;;;;;4956249;28;20114;-61
2021/12/07 12:12:01;;;;;;;32.10;9.02;;;5.30;99.90;;;;;;4955915;28;20126;-60
2021/12/07 12:15:02;;;;;;;25.65;7.53;;;5.30;99.90;;;;;;4952089;28;20039;-59
2021/12/07 12:17:40;;;;;;;24.92;8.38;;;5.20;99.90;;;;;;4951842;28;20126;-60
2021/12/07 12:20:34;;;;;;;13.95;4.93;;;5.20;99.90;;;;;;4948369;28;20371;-60
2021/12/07 12:23:37;;;;;;;14.55;4.63;;;5.10;99.90;;;;;;4943880;28;20023;-60
2021/12/07 12:26:07;;;;;;;12.45;3.50;;;5.20;99.90;;;;;;4939643;28;20882;-61
2021/12/07 12:28:38;;;;;;;10.63;2.42;;;5.20;99.90;;;;;;4947798;28;20028;-61
2021/12/07 12:31:06;;;;;;;18.25;5.03;;;5.20;99.90;;;;;;4940194;28;20015;-61
2021/12/07 12:33:46;;;;;;;13.75;5.53;;;5.20;99.90;;;;;;4949523;28;20027;-60
2021/12/07 12:36:12;;;;;;;32.63;11.27;;;5.20;99.90;;;;;;4949774;28;20032;-60
2021/12/07 12:38:46;;;;;;;17.52;5.25;;;5.10;99.90;;;;;;4951795;28;20065;-61
2021/12/07 12:41:13;;;;;;;13.43;5.43;;;5.10;99.90;;;;;;4940723;28;20484;-60
2021/12/07 12:43:41;;;;;;;17.23;5.70;;;5.10;99.90;;;;;;4948300;28;20027;-61
2021/12/07 12:46:09;;;;;;;7.40;3.05;;;5.00;99.90;;;;;;4942013;28;20147;-60
2021/12/07 12:48:35;;;;;;;13.57;2.72;;;5.10;99.90;;;;;;4943536;28;20030;-59
2021/12/07 12:51:01;;;;;;;9.30;2.67;;;5.10;99.90;;;;;;4937167;28;20058;-60
2021/12/07 12:53:31;;;;;;;8.10;3.13;;;5.10;99.90;;;;;;4938621;28;20062;-60
2021/12/07 12:55:59;;;;;;;14.60;4.65;;;5.10;99.90;;;;;;4949523;28;20035;-59
2021/12/07 12:58:28;;;;;;;18.90;2.38;;;5.10;99.90;;;;;;4948250;28;20028;-59
2021/12/07 13:01:08;;;;;;;7.82;2.13;;;5.00;99.90;;;;;;4948756;28;20508;-59
2021/12/07 13:03:42;;;;;;;7.53;2.20;;;5.00;99.90;;;;;;4947716;28;20035;-60
2021/12/07 13:06:12;;;;;;;12.93;2.30;;;5.00;99.90;;;;;;4945828;28;20092;-61
2021/12/07 13:08:57;;;;;;;13.20;3.60;;;5.00;99.90;;;;;;4942442;28;20050;-61
2021/12/07 13:11:40;;;;;;;9.40;2.53;;;4.90;99.90;;;;;;4943778;28;20047;-60
2021/12/07 13:14:23;;;;;;;10.85;2.22;;;4.90;99.90;;;;;;4939470;28;20119;-60
2021/12/07 13:16:52;;;;;;;5.75;1.60;;;4.90;99.90;;;;;;4943911;28;20019;-60
2021/12/07 13:19:19;;;;;;;9.43;1.67;;;4.90;99.90;;;;;;4945817;28;20059;-61
2021/12/07 13:21:46;;;;;;;6.35;1.88;;;4.80;99.90;;;;;;4944473;28;20081;-61
2021/12/07 13:24:33;;;;;;;7.05;1.85;;;4.80;99.90;;;;;;4944965;28;20114;-59
2021/12/07 13:26:59;;;;;;;8.60;1.65;;;4.80;99.90;;;;;;4940107;28;20043;-59
2021/12/07 13:29:26;;;;;;;5.18;1.25;;;4.80;99.90;;;;;;4944403;28;20040;-61
2021/12/07 13:31:56;;;;;;;10.20;1.90;;;4.70;99.90;;;;;;4942472;28;20475;-59
2021/12/07 13:34:28;;;;;;;6.03;1.63;;;4.70;99.90;;;;;;4944949;28;20023;-60
2021/12/07 13:36:56;;;;;;;11.25;2.15;;;4.70;99.90;;;;;;4938462;28;20047;-60
2021/12/07 13:39:23;;;;;;;9.55;1.83;;;4.60;99.90;;;;;;4945302;28;20077;-61
2021/12/07 13:42:20;;;;;;;10.35;1.88;;;4.60;99.90;;;;;;4948733;28;20066;-61
2021/12/07 13:44:54;;;;;;;7.82;1.58;;;4.60;99.90;;;;;;4952851;28;20031;-61
2021/12/07 13:47:23;;;;;;;10.77;1.80;;;4.60;99.90;;;;;;4949127;28;20497;-61
2021/12/07 13:50:07;;;;;;;8.73;2.55;;;4.50;99.90;;;;;;4951127;28;20078;-61
2021/12/07 13:52:36;;;;;;;7.00;2.20;;;4.50;99.90;;;;;;4945814;28;20035;-60
2021/12/07 13:55:09;;;;;;;11.23;2.58;;;4.40;99.90;;;;;;4952585;28;20043;-60
2021/12/07 13:57:37;;;;;;;6.70;2.83;;;4.40;99.90;;;;;;4953378;28;20033;-60
2021/12/07 14:00:23;;;;;;;8.73;2.55;;;4.40;99.90;;;;;;4948747;28;20031;-61
2021/12/07 14:02:55;;;;;;;7.13;2.13;;;4.40;99.90;;;;;;4916577;29;20102;-60
2021/12/07 14:05:27;;;;;;;5.22;2.25;;;4.30;99.90;;;;;;4928135;29;20498;-60
2021/12/07 14:07:55;;;;;;;4.40;1.92;;;4.20;99.90;;;;;;4929254;29;20490;-62
2021/12/07 14:10:24;;;;;;;9.27;2.20;;;4.10;99.90;;;;;;4929873;29;20486;-61
2021/12/07 14:12:53;;;;;;;7.82;1.55;;;4.10;99.90;;;;;;4926248;29;20063;-60
2021/12/07 14:15:33;;;;;;;9.02;3.03;;;4.00;99.90;;;;;;4931950;29;20031;-60
2021/12/07 14:18:05;;;;;;;12.68;3.28;;;3.90;99.90;;;;;;4928751;29;20405;-61
2021/12/07 14:20:40;;;;;;;12.55;4.72;;;3.80;99.90;;;;;;4929165;29;20023;-60
2021/12/07 14:23:14;;;;;;;9.43;2.60;;;3.70;99.90;;;;;;4929072;29;20032;-61
2021/12/07 14:25:59;;;;;;;11.90;3.25;;;3.70;99.90;;;;;;4930468;29;20461;-60
2021/12/07 14:28:26;;;;;;;;;;;3.70;99.90;;;;;;4930441;29;20111;-61
2021/12/07 14:30:51;;;;;;;11.13;3.97;;;3.60;99.90;;;;;;4924160;29;21801;-61
2021/12/07 14:33:17;;;;;;;9.88;3.60;;;3.50;99.90;;;;;;4924748;29;20115;-60
2021/12/07 14:35:43;;;;;;;9.95;3.33;;;3.50;99.90;;;;;;4926495;29;20030;-59
2021/12/07 14:38:09;;;;;;;11.13;2.22;;;3.40;99.90;;;;;;4927332;29;20027;-61
2021/12/07 14:40:34;;;;;;;9.20;3.30;;;3.40;99.90;;;;;;4927001;29;20079;-61
2021/12/07 14:43:00;;;;;;;16.45;3.03;;;3.30;99.90;;;;;;4930543;29;20027;-55
2021/12/07 14:45:26;;;;;;;12.63;4.68;;;3.20;99.90;;;;;;4927248;29;20047;-61